Time,TemperatureF,DewpointF,PressureIn,WindDirection,WindDirectionDegrees,WindSpeedMPH,WindSpeedGustMPH,Humidity,HourlyPrecipIn,Conditions,Clouds,dailyrainin,SoftwareType,DateUTC
2013-11-16 00:03:00,48.4,48.4,29.74,SW,225,6.9,6.9,100,0.00,RA,,0.00,WeatherDisplay:10.37,2013-11-16 08:03:00,
2013-11-16 00:08:00,48.4,48.4,29.73,West,270,4.6,4.6,100,0.00,RA,,0.00,WeatherDisplay:10.37,2013-11-16 08:08:00,
2013-11-16 00:13:00,48.4,48.4,29.73,South,180,10.4,10.4,100,0.00,CLR,,0.00,WeatherDisplay:10.37,2013-11-16 08:13:00,
2013-11-16 00:18:00,48.4,48.4,29.73,SSW,202,9.2,9.2,100,0.00,CLR,,0.00,WeatherDisplay:10.37,2013-11-16 08:18:00,
2013-11-16 00:23:00,48.4,48.4,29.73,SW,225,4.6,4.6,100,0.00,CLR,,0.00,WeatherDisplay:10.37,2013-11-16 08:23:00,
2013-11-16 00:28:00,48.6,48.6,29.72,SW,225,12.7,12.7,100,0.00,CLR,,0.00,WeatherDisplay:10.37,2013-11-16 08:28:00,
2013-11-16 00:33:00,48.6,48.6,29.72,South,180,15.0,15.0,100,0.00,CLR,,0.00,WeatherDisplay:10.37,2013-11-16 08:33:00,
2013-11-16 00:38:00,48.6,48.6,29.72,SW,225,13.8,13.8,100,0.00,CLR,,0.00,WeatherDisplay:10.37,2013-11-16 08:38:00,
2013-11-16 00:43:00,48.6,48.6,29.72,South,180,12.7,12.7,100,0.00,CLR,,0.00,WeatherDisplay:10.37,2013-11-16 08:43:00,
2013-11-16 00:48:00,48.6,48.6,29.71,SW,225,8.3,8.3,100,0.00,CLR,,0.00,WeatherDisplay:10.37,2013-11-16 08:48:00,
2013-11-16 00:53:00,48.6,48.6,29.71,South,180,10.4,10.4,100,0.00,CLR,,0.00,WeatherDisplay:10.37,2013-11-16 08:53:00,
2013-11-16 00:58:00,48.6,48.6,29.71,South,180,10.4,10.4,100,0.00,CLR,,0.00,WeatherDisplay:10.37,2013-11-16 08:58:00,
2013-11-16 01:03:00,48.6,48.6,29.70,SW,225,12.7,12.7,100,0.00,CLR,,0.00,WeatherDisplay:10.37,2013-11-16 09:03:00,
2013-11-16 01:08:00,48.7,48.7,29.70,South,180,17.3,17.3,100,0.00,CLR,,0.00,WeatherDisplay:10.37,2013-11-16 09:08:00,
2013-11-16 01:13:00,48.9,48.9,29.70,NW,315,13.8,13.8,100,0.00,CLR,,0.00,WeatherDisplay:10.37,2013-11-16 09:13:00,
2013-11-16 01:18:00,48.7,48.7,29.70,NW,315,4.6,4.6,100,0.00,CLR,,0.00,WeatherDisplay:10.37,2013-11-16 09:18:00,
2013-11-16 01:23:00,48.9,48.9,29.70,SW,225,10.4,10.4,100,0.00,CLR,,0.00,WeatherDisplay:10.37,2013-11-16 09:23:00,
2013-11-16 01:28:00,48.9,48.9,29.70,SW,225,9.2,9.2,100,0.00,CLR,,0.00,WeatherDisplay:10.37,2013-11-16 09:28:00,
2013-11-16 01:33:00,48.9,48.9,29.70,West,270,8.1,8.1,100,0.00,CLR,,0.00,WeatherDisplay:10.37,2013-11-16 09:33:00,
2013-11-16 01:38:00,49.1,49.1,29.70,SW,225,8.1,8.1,100,0.00,CLR,,0.00,WeatherDisplay:10.37,2013-11-16 09:38:00,
2013-11-16 01:43:00,49.3,49.3,29.70,SW,225,5.8,5.8,100,0.00,CLR,,0.00,WeatherDisplay:10.37,2013-11-16 09:43:00,
2013-11-16 01:48:00,49.3,49.3,29.69,South,180,10.4,10.4,100,0.00,CLR,,0.00,WeatherDisplay:10.37,2013-11-16 09:48:00,
2013-11-16 01:53:00,49.5,49.5,29.69,South,180,11.5,11.5,100,0.00,CLR,,0.00,WeatherDisplay:10.37,2013-11-16 09:53:00,
2013-11-16 01:58:00,49.5,49.5,29.69,SW,225,15.0,15.0,100,0.00,CLR,,0.00,WeatherDisplay:10.37,2013-11-16 09:58:00,
2013-11-16 02:03:00,49.6,49.6,29.69,South,180,11.5,11.5,100,0.00,CLR,,0.00,WeatherDisplay:10.37,2013-11-16 10:03:00,
2013-11-16 02:08:00,49.8,49.8,29.69,South,180,11.5,11.5,100,0.00,CLR,,0.00,WeatherDisplay:10.37,2013-11-16 10:08:00,
2013-11-16 02:13:00,49.8,49.8,29.69,SSW,202,9.2,9.2,100,0.00,CLR,,0.00,WeatherDisplay:10.37,2013-11-16 10:13:00,
2013-11-16 02:18:00,49.8,49.8,29.70,SW,225,9.2,9.2,100,0.00,CLR,,0.00,WeatherDisplay:10.37,2013-11-16 10:18:00,
2013-11-16 02:23:00,49.8,49.8,29.69,South,180,8.1,8.1,100,0.00,CLR,,0.00,WeatherDisplay:10.37,2013-11-16 10:23:00,
2013-11-16 02:28:00,49.8,49.8,29.69,SW,225,10.4,10.4,100,0.00,CLR,,0.00,WeatherDisplay:10.37,2013-11-16 10:28:00,
2013-11-16 02:33:00,50.0,50.0,29.69,SW,225,10.4,10.4,100,0.00,CLR,,0.00,WeatherDisplay:10.37,2013-11-16 10:33:00,
2013-11-16 02:38:00,50.2,50.2,29.69,SW,225,10.4,10.4,100,0.00,CLR,,0.00,WeatherDisplay:10.37,2013-11-16 10:38:00,
2013-11-16 02:43:00,50.4,50.4,29.69,SW,225,9.2,9.2,100,0.00,CLR,,0.00,WeatherDisplay:10.37,2013-11-16 10:43:00,
2013-11-16 02:48:00,50.5,50.5,29.69,SW,225,12.7,12.7,100,0.00,CLR,,0.00,WeatherDisplay:10.37,2013-11-16 10:48:00,
2013-11-16 02:53:00,50.4,50.4,29.69,SW,225,2.3,2.3,100,0.00,CLR,,0.00,WeatherDisplay:10.37,2013-11-16 10:53:00,
2013-11-16 02:58:00,50.4,50.4,29.69,SW,225,0.0,0.0,100,0.00,CLR,,0.00,WeatherDisplay:10.37,2013-11-16 10:58:00,
2013-11-16 03:03:00,50.4,50.4,29.69,SW,225,3.5,3.5,100,0.00,CLR,,0.00,WeatherDisplay:10.37,2013-11-16 11:03:00,
2013-11-16 03:08:00,50.5,50.5,29.69,SW,225,4.6,4.6,100,0.00,CLR,,0.00,WeatherDisplay:10.37,2013-11-16 11:08:00,
2013-11-16 03:13:00,50.7,50.7,29.69,SW,225,12.7,12.7,100,0.01,RA,,0.01,WeatherDisplay:10.37,2013-11-16 11:13:00,
2013-11-16 03:18:00,50.9,50.9,29.69,West,270,5.8,5.8,100,0.01,RA,,0.01,WeatherDisplay:10.37,2013-11-16 11:18:00,
2013-11-16 03:23:00,50.9,50.9,29.69,NW,315,4.6,4.6,100,0.01,,,0.01,WeatherDisplay:10.37,2013-11-16 11:23:00,
2013-11-16 03:28:00,50.9,50.9,29.69,West,270,6.9,6.9,100,0.01,CLR,,0.01,WeatherDisplay:10.37,2013-11-16 11:28:00,
2013-11-16 03:33:00,50.5,50.5,29.69,SW,225,6.9,6.9,100,0.01,CLR,,0.01,WeatherDisplay:10.37,2013-11-16 11:33:00,
2013-11-16 03:38:00,50.2,50.2,29.69,SW,225,5.8,5.8,100,0.01,CLR,,0.01,WeatherDisplay:10.37,2013-11-16 11:38:00,
2013-11-16 03:43:00,50.0,50.0,29.69,West,270,6.9,6.9,100,0.01,CLR,,0.01,WeatherDisplay:10.37,2013-11-16 11:43:00,
2013-11-16 03:48:00,50.0,50.0,29.69,SW,225,2.3,0.0,100,0.01,CLR,,0.01,WeatherDisplay:10.37,2013-11-16 11:48:00,
2013-11-16 03:53:00,49.8,49.8,29.69,SW,225,2.3,0.0,100,0.01,CLR,,0.01,WeatherDisplay:10.37,2013-11-16 11:53:00,
2013-11-16 03:58:00,49.8,49.8,29.69,West,270,5.8,5.8,100,0.01,CLR,,0.01,WeatherDisplay:10.37,2013-11-16 11:58:00,
2013-11-16 04:03:00,50.0,50.0,29.68,SW,225,5.8,5.8,100,0.01,CLR,,0.01,WeatherDisplay:10.37,2013-11-16 12:03:00,
2013-11-16 04:08:00,50.2,50.2,29.69,NW,315,3.5,0.0,100,0.01,CLR,,0.01,WeatherDisplay:10.37,2013-11-16 12:08:00,
2013-11-16 04:13:00,50.0,50.0,29.69,South,180,1.2,0.0,100,0.00,CLR,,0.01,WeatherDisplay:10.37,2013-11-16 12:13:00,
2013-11-16 04:18:00,50.0,50.0,29.69,SW,225,1.2,0.0,100,0.00,CLR,,0.01,WeatherDisplay:10.37,2013-11-16 12:18:00,
2013-11-16 04:23:00,50.0,50.0,29.69,SW,225,2.3,0.0,100,0.00,CLR,,0.01,WeatherDisplay:10.37,2013-11-16 12:23:00,
2013-11-16 04:28:00,49.8,49.8,29.69,SE,135,2.3,0.0,100,0.00,CLR,,0.01,WeatherDisplay:10.37,2013-11-16 12:28:00,
2013-11-16 04:33:00,49.6,49.6,29.70,South,180,0.0,0.0,100,0.00,CLR,,0.01,WeatherDisplay:10.37,2013-11-16 12:33:00,
2013-11-16 04:38:00,49.6,49.6,29.70,South,180,2.3,2.3,100,0.00,CLR,,0.01,WeatherDisplay:10.37,2013-11-16 12:38:00,
2013-11-16 04:43:00,49.8,49.8,29.70,West,270,3.5,0.0,100,0.00,CLR,,0.01,WeatherDisplay:10.37,2013-11-16 12:43:00,
2013-11-16 04:48:00,49.8,49.8,29.70,SE,135,3.5,3.5,100,0.00,CLR,,0.01,WeatherDisplay:10.37,2013-11-16 12:48:00,
2013-11-16 04:53:00,49.6,49.6,29.70,South,180,0.0,0.0,100,0.00,CLR,,0.01,WeatherDisplay:10.37,2013-11-16 12:53:00,
2013-11-16 04:58:00,49.6,49.6,29.71,South,180,4.6,4.6,100,0.00,CLR,,0.01,WeatherDisplay:10.37,2013-11-16 12:58:00,
2013-11-16 05:03:00,49.8,49.8,29.71,South,180,2.3,0.0,100,0.00,CLR,,0.01,WeatherDisplay:10.37,2013-11-16 13:03:00,
2013-11-16 05:08:00,49.6,49.6,29.71,SW,225,2.3,2.3,100,0.00,CLR,,0.01,WeatherDisplay:10.37,2013-11-16 13:08:00,
2013-11-16 05:13:00,49.6,49.6,29.70,SW,225,1.2,0.0,100,0.00,CLR,,0.01,WeatherDisplay:10.37,2013-11-16 13:13:00,
2013-11-16 05:18:00,49.6,49.6,29.71,NE,45,1.2,0.0,100,0.01,RA,,0.02,WeatherDisplay:10.37,2013-11-16 13:18:00,
2013-11-16 05:23:00,49.5,49.5,29.71,SE,135,1.2,0.0,100,0.01,RA,,0.02,WeatherDisplay:10.37,2013-11-16 13:23:00,
2013-11-16 05:28:00,49.5,49.5,29.71,SE,135,0.0,0.0,100,0.01,CLR,,0.02,WeatherDisplay:10.37,2013-11-16 13:28:00,
2013-11-16 05:33:00,49.5,49.5,29.71,North,0,0.0,0.0,100,0.01,CLR,,0.02,WeatherDisplay:10.37,2013-11-16 13:33:00,
2013-11-16 05:38:00,49.5,49.5,29.70,North,0,0.0,0.0,100,0.01,CLR,,0.02,WeatherDisplay:10.37,2013-11-16 13:38:00,
2013-11-16 05:43:00,49.5,49.5,29.71,South,180,1.2,1.2,100,0.01,CLR,,0.02,WeatherDisplay:10.37,2013-11-16 13:43:00,
2013-11-16 05:48:00,49.3,49.3,29.71,South,180,1.2,0.0,100,0.01,CLR,,0.02,WeatherDisplay:10.37,2013-11-16 13:48:00,
2013-11-16 05:53:00,49.5,49.5,29.71,NE,45,0.0,0.0,100,0.01,CLR,,0.02,WeatherDisplay:10.37,2013-11-16 13:53:00,
2013-11-16 05:58:00,49.5,49.5,29.71,West,270,3.5,3.5,100,0.01,CLR,,0.04,WeatherDisplay:10.37,2013-11-16 13:58:00,
2013-11-16 06:03:00,49.5,49.5,29.72,NW,315,10.4,10.4,100,0.02,RA,,0.04,WeatherDisplay:10.37,2013-11-16 14:03:00,
2013-11-16 06:08:00,48.9,48.9,29.73,SW,225,3.5,3.5,100,0.02,RA,,0.04,WeatherDisplay:10.37,2013-11-16 14:08:00,
2013-11-16 06:13:00,48.6,48.6,29.72,SW,225,5.8,5.8,100,0.02,CLR,,0.04,WeatherDisplay:10.37,2013-11-16 14:13:00,
2013-11-16 06:18:00,48.4,48.4,29.72,East,90,1.6,1.6,100,0.01,CLR,,0.04,WeatherDisplay:10.37,2013-11-16 14:18:00,
2013-11-16 06:23:00,48.4,48.4,29.72,South,180,1.2,0.0,100,0.02,RA,,0.05,WeatherDisplay:10.37,2013-11-16 14:23:00,
2013-11-16 06:28:00,48.2,48.2,29.72,SW,225,1.2,0.0,100,0.02,RA,,0.05,WeatherDisplay:10.37,2013-11-16 14:28:00,
2013-11-16 06:33:00,48.0,48.0,29.72,SW,225,0.0,0.0,100,0.02,CLR,,0.05,WeatherDisplay:10.37,2013-11-16 14:33:00,
2013-11-16 06:38:00,48.0,48.0,29.73,SW,225,1.2,0.0,100,0.02,CLR,,0.05,WeatherDisplay:10.37,2013-11-16 14:38:00,
2013-11-16 06:43:00,47.8,47.8,29.73,SW,225,3.5,3.5,100,0.02,CLR,,0.05,WeatherDisplay:10.37,2013-11-16 14:43:00,
2013-11-16 06:48:00,47.8,47.8,29.73,SW,225,3.5,3.5,100,0.02,CLR,,0.05,WeatherDisplay:10.37,2013-11-16 14:48:00,
2013-11-16 06:53:00,47.8,47.8,29.73,SW,225,1.2,1.2,100,0.02,CLR,,0.05,WeatherDisplay:10.37,2013-11-16 14:53:00,
2013-11-16 06:58:00,47.8,47.8,29.73,SW,225,1.2,1.6,100,0.02,CLR,,0.05,WeatherDisplay:10.37,2013-11-16 14:58:00,
2013-11-16 07:03:00,47.8,47.8,29.73,SW,225,5.8,5.8,100,0.01,CLR,,0.05,WeatherDisplay:10.37,2013-11-16 15:03:00,
2013-11-16 07:08:00,47.8,47.8,29.73,South,180,1.2,1.2,100,0.01,CLR,,0.05,WeatherDisplay:10.37,2013-11-16 15:08:00,
2013-11-16 07:13:00,47.7,47.7,29.74,South,180,1.2,1.2,100,0.01,CLR,,0.05,WeatherDisplay:10.37,2013-11-16 15:13:00,
2013-11-16 07:18:00,47.7,47.7,29.74,South,180,2.3,2.3,100,0.01,CLR,,0.05,WeatherDisplay:10.37,2013-11-16 15:18:00,
2013-11-16 07:23:00,47.7,47.7,29.74,South,180,1.2,0.0,100,0.00,CLR,,0.05,WeatherDisplay:10.37,2013-11-16 15:23:00,
2013-11-16 07:28:00,47.7,47.7,29.74,South,180,1.2,0.0,100,0.00,CLR,,0.05,WeatherDisplay:10.37,2013-11-16 15:28:00,
2013-11-16 07:33:00,47.5,47.5,29.74,South,180,0.0,0.0,100,0.00,CLR,,0.05,WeatherDisplay:10.37,2013-11-16 15:33:00,
2013-11-16 07:38:00,47.5,47.5,29.74,South,180,1.6,1.6,100,0.00,CLR,,0.05,WeatherDisplay:10.37,2013-11-16 15:38:00,
2013-11-16 07:43:00,47.5,47.5,29.75,South,180,0.0,0.0,100,0.00,CLR,,0.05,WeatherDisplay:10.37,2013-11-16 15:43:00,
2013-11-16 07:48:00,47.5,47.5,29.75,South,180,0.0,0.0,100,0.00,CLR,,0.05,WeatherDisplay:10.37,2013-11-16 15:48:00,
2013-11-16 07:53:00,47.7,47.7,29.75,West,270,0.0,0.0,100,0.00,CLR,,0.05,WeatherDisplay:10.37,2013-11-16 15:53:00,
2013-11-16 07:58:00,47.8,47.8,29.75,West,270,0.0,0.0,100,0.00,CLR,,0.05,WeatherDisplay:10.37,2013-11-16 15:58:00,
2013-11-16 08:03:00,47.8,47.8,29.75,West,270,0.0,0.0,100,0.00,CLR,,0.05,WeatherDisplay:10.37,2013-11-16 16:03:00,
2013-11-16 08:08:00,48.0,48.0,29.75,South,180,1.2,0.0,100,0.00,CLR,,0.05,WeatherDisplay:10.37,2013-11-16 16:08:00,
2013-11-16 08:13:00,48.0,48.0,29.75,South,180,0.0,0.0,100,0.00,CLR,,0.05,WeatherDisplay:10.37,2013-11-16 16:13:00,
2013-11-16 08:18:00,48.2,48.2,29.75,South,180,1.2,1.2,100,0.00,CLR,,0.05,WeatherDisplay:10.37,2013-11-16 16:18:00,
2013-11-16 08:23:00,48.2,48.2,29.76,SW,225,0.0,0.0,100,0.00,CLR,,0.05,WeatherDisplay:10.37,2013-11-16 16:23:00,
2013-11-16 08:28:00,48.4,48.4,29.76,SW,225,0.0,0.0,100,0.00,CLR,,0.05,WeatherDisplay:10.37,2013-11-16 16:28:00,
2013-11-16 08:33:00,48.6,48.6,29.76,SW,225,0.0,0.0,100,0.00,CLR,,0.05,WeatherDisplay:10.37,2013-11-16 16:33:00,
2013-11-16 08:38:00,48.7,48.7,29.76,SW,225,0.0,0.0,100,0.00,CLR,,0.05,WeatherDisplay:10.37,2013-11-16 16:38:00,
2013-11-16 08:43:00,48.9,48.9,29.76,West,270,1.2,0.0,100,0.00,CLR,,0.05,WeatherDisplay:10.37,2013-11-16 16:43:00,
2013-11-16 08:48:00,49.1,49.1,29.76,NW,315,1.2,0.0,100,0.00,CLR,,0.05,WeatherDisplay:10.37,2013-11-16 16:48:00,
2013-11-16 08:53:00,49.3,49.3,29.76,NE,45,1.2,0.0,100,0.00,CLR,,0.05,WeatherDisplay:10.37,2013-11-16 16:53:00,
2013-11-16 08:58:00,49.5,49.5,29.77,NE,45,1.2,0.0,100,0.00,CLR,,0.05,WeatherDisplay:10.37,2013-11-16 16:58:00,
2013-11-16 09:03:00,49.6,49.6,29.76,NE,45,2.3,2.3,100,0.00,CLR,,0.05,WeatherDisplay:10.37,2013-11-16 17:03:00,
2013-11-16 09:08:00,49.6,49.6,29.77,NE,45,1.6,1.6,100,0.00,CLR,,0.05,WeatherDisplay:10.37,2013-11-16 17:08:00,
2013-11-16 09:13:00,49.6,49.6,29.76,NE,45,1.2,1.2,100,0.00,CLR,,0.05,WeatherDisplay:10.37,2013-11-16 17:13:00,
2013-11-16 09:18:00,49.8,49.8,29.76,North,0,2.3,0.0,100,0.00,CLR,,0.05,WeatherDisplay:10.37,2013-11-16 17:18:00,
2013-11-16 09:23:00,50.0,50.0,29.76,NE,45,1.2,0.0,100,0.00,CLR,,0.05,WeatherDisplay:10.37,2013-11-16 17:23:00,
2013-11-16 09:28:00,50.4,50.4,29.76,North,0,1.2,0.0,100,0.00,CLR,,0.05,WeatherDisplay:10.37,2013-11-16 17:28:00,
2013-11-16 09:33:00,50.7,50.7,29.77,North,0,1.2,0.0,100,0.00,CLR,,0.05,WeatherDisplay:10.37,2013-11-16 17:33:00,
2013-11-16 09:38:00,51.1,51.1,29.77,West,270,0.0,0.0,100,0.00,CLR,,0.05,WeatherDisplay:10.37,2013-11-16 17:38:00,
2013-11-16 09:43:00,51.8,51.8,29.77,West,270,0.0,0.0,100,0.00,CLR,,0.05,WeatherDisplay:10.37,2013-11-16 17:43:00,
2013-11-16 09:48:00,52.5,52.5,29.77,NE,45,1.2,0.0,100,0.00,CLR,,0.05,WeatherDisplay:10.37,2013-11-16 17:48:00,
2013-11-16 09:53:00,52.7,52.7,29.77,NW,315,1.2,0.0,100,0.00,CLR,,0.05,WeatherDisplay:10.37,2013-11-16 17:53:00,
2013-11-16 09:58:00,52.9,52.9,29.77,NW,315,0.0,0.0,100,0.00,CLR,,0.05,WeatherDisplay:10.37,2013-11-16 17:58:00,
2013-11-16 10:03:00,52.7,52.7,29.77,SW,225,1.2,0.0,100,0.00,CLR,,0.05,WeatherDisplay:10.37,2013-11-16 18:03:00,
2013-11-16 10:08:00,52.5,52.5,29.77,South,180,0.0,0.0,100,0.00,CLR,,0.05,WeatherDisplay:10.37,2013-11-16 18:08:00,
2013-11-16 10:13:00,52.5,52.5,29.77,South,180,1.2,0.0,100,0.00,CLR,,0.05,WeatherDisplay:10.37,2013-11-16 18:13:00,
2013-11-16 10:18:00,52.2,52.2,29.78,SW,225,3.5,3.5,100,0.00,CLR,,0.05,WeatherDisplay:10.37,2013-11-16 18:18:00,
2013-11-16 10:23:00,51.8,51.8,29.78,South,180,4.6,4.6,100,0.00,CLR,,0.05,WeatherDisplay:10.37,2013-11-16 18:23:00,
2013-11-16 10:28:00,52.0,52.0,29.78,SW,225,1.2,1.6,100,0.00,CLR,,0.05,WeatherDisplay:10.37,2013-11-16 18:28:00,
2013-11-16 10:33:00,52.0,52.0,29.78,SW,225,3.5,3.5,100,0.00,CLR,,0.05,WeatherDisplay:10.37,2013-11-16 18:33:00,
2013-11-16 10:38:00,52.3,52.3,29.78,SW,225,1.2,1.2,100,0.00,CLR,,0.05,WeatherDisplay:10.37,2013-11-16 18:38:00,
2013-11-16 10:43:00,52.3,52.3,29.79,SW,225,2.3,2.3,100,0.00,CLR,,0.05,WeatherDisplay:10.37,2013-11-16 18:43:00,
2013-11-16 10:48:00,52.7,52.7,29.79,SW,225,3.5,3.5,100,0.00,CLR,,0.05,WeatherDisplay:10.37,2013-11-16 18:48:00,
2013-11-16 10:53:00,52.9,52.9,29.79,SW,225,4.6,4.6,100,0.00,CLR,,0.05,WeatherDisplay:10.37,2013-11-16 18:53:00,
2013-11-16 10:58:00,53.4,53.4,29.79,South,180,3.8,3.8,100,0.00,CLR,,0.05,WeatherDisplay:10.37,2013-11-16 18:58:00,
2013-11-16 11:03:00,54.0,54.0,29.79,SW,225,6.9,6.9,100,0.00,CLR,,0.05,WeatherDisplay:10.37,2013-11-16 19:03:00,
2013-11-16 11:08:00,54.5,54.5,29.79,SW,225,4.6,4.6,100,0.00,CLR,,0.05,WeatherDisplay:10.37,2013-11-16 19:08:00,
2013-11-16 11:13:00,56.1,56.1,29.79,South,180,5.8,5.8,100,0.00,CLR,,0.05,WeatherDisplay:10.37,2013-11-16 19:13:00,
2013-11-16 11:18:00,56.5,56.5,29.78,SW,225,5.8,5.8,100,0.00,CLR,,0.05,WeatherDisplay:10.37,2013-11-16 19:18:00,
2013-11-16 11:23:00,56.3,56.3,29.79,SSW,202,5.8,5.8,100,0.00,CLR,,0.05,WeatherDisplay:10.37,2013-11-16 19:23:00,
2013-11-16 11:28:00,55.9,55.9,29.79,South,180,5.8,5.8,100,0.00,CLR,,0.05,WeatherDisplay:10.37,2013-11-16 19:28:00,
2013-11-16 11:33:00,55.8,55.8,29.78,South,180,4.6,4.6,100,0.00,CLR,,0.05,WeatherDisplay:10.37,2013-11-16 19:33:00,
2013-11-16 11:38:00,55.4,55.4,29.78,SW,225,5.8,5.8,100,0.00,CLR,,0.05,WeatherDisplay:10.37,2013-11-16 19:38:00,
2013-11-16 11:43:00,55.4,55.4,29.78,NW,315,2.3,2.3,100,0.00,CLR,,0.05,WeatherDisplay:10.37,2013-11-16 19:43:00,
2013-11-16 11:48:00,55.9,55.9,29.78,SW,225,3.5,3.5,100,0.00,CLR,,0.05,WeatherDisplay:10.37,2013-11-16 19:48:00,
2013-11-16 11:53:00,57.9,57.9,29.78,SW,225,5.8,5.8,100,0.00,CLR,,0.05,WeatherDisplay:10.37,2013-11-16 19:53:00,
2013-11-16 11:58:00,58.6,58.6,29.77,West,270,10.4,10.4,100,0.00,CLR,,0.05,WeatherDisplay:10.37,2013-11-16 19:58:00,
2013-11-16 12:03:00,59.0,59.0,29.78,West,270,5.8,5.8,100,0.00,CLR,,0.05,WeatherDisplay:10.37,2013-11-16 20:03:00,
2013-11-16 12:08:00,58.5,58.5,29.78,West,270,6.9,6.9,100,0.00,CLR,,0.05,WeatherDisplay:10.37,2013-11-16 20:08:00,
2013-11-16 12:13:00,57.2,57.2,29.78,West,270,6.9,6.9,100,0.00,CLR,,0.05,WeatherDisplay:10.37,2013-11-16 20:13:00,
2013-11-16 12:18:00,56.8,56.8,29.78,West,270,5.8,5.8,100,0.00,CLR,,0.05,WeatherDisplay:10.37,2013-11-16 20:18:00,
2013-11-16 12:23:00,56.5,56.5,29.78,NW,315,8.1,8.1,100,0.00,CLR,,0.05,WeatherDisplay:10.37,2013-11-16 20:23:00,
2013-11-16 12:28:00,56.5,56.5,29.78,West,270,8.1,8.1,100,0.00,CLR,,0.05,WeatherDisplay:10.37,2013-11-16 20:28:00,
2013-11-16 12:33:00,56.8,56.8,29.77,West,270,8.1,8.1,100,0.00,CLR,,0.05,WeatherDisplay:10.37,2013-11-16 20:33:00,
2013-11-16 12:38:00,57.7,57.7,29.77,SW,225,4.6,4.6,100,0.00,CLR,,0.05,WeatherDisplay:10.37,2013-11-16 20:38:00,
2013-11-16 12:43:00,58.6,58.6,29.77,SW,225,8.1,8.1,100,0.00,CLR,,0.05,WeatherDisplay:10.37,2013-11-16 20:43:00,
2013-11-16 12:48:00,59.2,59.2,29.78,West,270,9.2,9.2,100,0.00,CLR,,0.05,WeatherDisplay:10.37,2013-11-16 20:48:00,
2013-11-16 12:53:00,58.1,58.1,29.77,SW,225,10.4,10.4,100,0.00,CLR,,0.05,WeatherDisplay:10.37,2013-11-16 20:53:00,
2013-11-16 12:58:00,57.6,57.6,29.78,West,270,3.5,3.5,100,0.00,CLR,,0.05,WeatherDisplay:10.37,2013-11-16 20:58:00,
2013-11-16 13:03:00,58.1,58.1,29.78,SW,225,4.6,4.6,100,0.00,CLR,,0.05,WeatherDisplay:10.37,2013-11-16 21:03:00,
2013-11-16 13:08:00,57.4,57.4,29.78,West,270,5.8,5.8,100,0.00,CLR,,0.05,WeatherDisplay:10.37,2013-11-16 21:08:00,
2013-11-16 13:13:00,57.6,57.6,29.79,SW,225,8.1,8.1,100,0.00,CLR,,0.05,WeatherDisplay:10.37,2013-11-16 21:13:00,
2013-11-16 13:18:00,57.9,57.9,29.78,SW,225,5.8,5.8,100,0.00,CLR,,0.05,WeatherDisplay:10.37,2013-11-16 21:18:00,
2013-11-16 13:23:00,58.1,58.1,29.80,SW,225,8.1,8.1,100,0.00,CLR,,0.05,WeatherDisplay:10.37,2013-11-16 21:23:00,
2013-11-16 13:28:00,58.3,58.3,29.79,SW,225,4.6,4.6,100,0.00,CLR,,0.05,WeatherDisplay:10.37,2013-11-16 21:28:00,
2013-11-16 13:33:00,58.1,58.1,29.79,West,270,4.6,6.0,100,0.00,CLR,,0.05,WeatherDisplay:10.37,2013-11-16 21:33:00,
2013-11-16 13:38:00,57.9,57.9,29.79,SW,225,4.6,4.6,100,0.00,CLR,,0.05,WeatherDisplay:10.37,2013-11-16 21:38:00,
2013-11-16 13:43:00,57.7,57.7,29.79,SW,225,5.8,5.8,100,0.00,CLR,,0.05,WeatherDisplay:10.37,2013-11-16 21:43:00,
2013-11-16 13:48:00,57.9,57.9,29.79,South,180,8.1,8.1,100,0.00,CLR,,0.05,WeatherDisplay:10.37,2013-11-16 21:48:00,
2013-11-16 13:53:00,58.3,58.3,29.79,SW,225,6.9,6.9,100,0.00,CLR,,0.05,WeatherDisplay:10.37,2013-11-16 21:53:00,
2013-11-16 13:58:00,58.3,58.3,29.79,SW,225,8.1,8.1,100,0.00,CLR,,0.05,WeatherDisplay:10.37,2013-11-16 21:58:00,
2013-11-16 14:03:00,58.3,58.3,29.80,SW,225,8.1,8.1,100,0.00,CLR,,0.05,WeatherDisplay:10.37,2013-11-16 22:03:00,
2013-11-16 14:08:00,59.5,59.5,29.80,SW,225,9.2,9.2,100,0.00,CLR,,0.05,WeatherDisplay:10.37,2013-11-16 22:08:00,
2013-11-16 14:13:00,57.7,57.7,29.80,SSW,202,6.9,6.9,100,0.00,CLR,,0.05,WeatherDisplay:10.37,2013-11-16 22:13:00,
2013-11-16 14:18:00,56.7,56.7,29.80,SW,225,5.8,5.8,100,0.00,CLR,,0.05,WeatherDisplay:10.37,2013-11-16 22:18:00,
2013-11-16 14:23:00,56.1,56.1,29.80,SW,225,4.6,4.6,100,0.00,CLR,,0.05,WeatherDisplay:10.37,2013-11-16 22:23:00,
2013-11-16 14:28:00,55.8,55.8,29.80,SW,225,9.2,9.2,100,0.00,CLR,,0.05,WeatherDisplay:10.37,2013-11-16 22:28:00,
2013-11-16 14:33:00,55.4,55.4,29.80,SSW,202,6.9,6.9,100,0.00,CLR,,0.05,WeatherDisplay:10.37,2013-11-16 22:33:00,
2013-11-16 14:38:00,54.9,54.9,29.80,SW,225,11.5,11.5,100,0.00,CLR,,0.05,WeatherDisplay:10.37,2013-11-16 22:38:00,
2013-11-16 14:43:00,54.5,54.5,29.80,SW,225,8.1,8.1,100,0.00,CLR,,0.05,WeatherDisplay:10.37,2013-11-16 22:43:00,
2013-11-16 14:48:00,54.0,54.0,29.80,SW,225,8.1,8.1,100,0.00,CLR,,0.05,WeatherDisplay:10.37,2013-11-16 22:48:00,
2013-11-16 14:53:00,53.6,53.6,29.80,SW,225,6.9,6.9,100,0.00,CLR,,0.05,WeatherDisplay:10.37,2013-11-16 22:53:00,
2013-11-16 14:58:00,53.2,53.2,29.80,SW,225,10.4,10.4,100,0.00,CLR,,0.05,WeatherDisplay:10.37,2013-11-16 22:58:00,
2013-11-16 15:03:00,52.9,52.9,29.80,South,180,10.4,10.4,100,0.00,CLR,,0.05,WeatherDisplay:10.37,2013-11-16 23:03:00,
2013-11-16 15:08:00,52.5,52.5,29.80,West,270,8.1,8.1,100,0.00,CLR,,0.05,WeatherDisplay:10.37,2013-11-16 23:08:00,
2013-11-16 15:13:00,52.7,52.7,29.81,SW,225,3.5,3.5,100,0.00,CLR,,0.05,WeatherDisplay:10.37,2013-11-16 23:13:00,
2013-11-16 15:18:00,52.9,52.9,29.81,SW,225,3.5,3.5,100,0.00,CLR,,0.05,WeatherDisplay:10.37,2013-11-16 23:18:00,
2013-11-16 15:23:00,52.9,52.9,29.81,South,180,6.9,6.9,100,0.00,CLR,,0.05,WeatherDisplay:10.37,2013-11-16 23:23:00,
2013-11-16 15:28:00,52.7,52.7,29.81,South,180,5.8,5.8,100,0.00,CLR,,0.05,WeatherDisplay:10.37,2013-11-16 23:28:00,
2013-11-16 15:33:00,52.5,52.5,29.81,South,180,4.6,4.6,100,0.00,CLR,,0.05,WeatherDisplay:10.37,2013-11-16 23:33:00,
2013-11-16 15:38:00,52.3,52.3,29.81,SW,225,3.5,3.5,100,0.00,CLR,,0.05,WeatherDisplay:10.37,2013-11-16 23:38:00,
2013-11-16 15:43:00,52.3,52.3,29.81,SW,225,4.6,4.6,100,0.00,CLR,,0.05,WeatherDisplay:10.37,2013-11-16 23:43:00,
2013-11-16 15:48:00,52.2,52.2,29.81,South,180,5.8,5.8,100,0.00,CLR,,0.05,WeatherDisplay:10.37,2013-11-16 23:48:00,
2013-11-16 15:53:00,52.0,52.0,29.81,South,180,3.5,3.5,100,0.00,CLR,,0.05,WeatherDisplay:10.37,2013-11-16 23:53:00,
2013-11-16 15:58:00,52.2,52.2,29.81,SW,225,3.5,3.5,100,0.00,CLR,,0.05,WeatherDisplay:10.37,2013-11-16 23:58:00,
2013-11-16 16:03:00,52.0,52.0,29.81,SW,225,2.3,2.3,100,0.00,CLR,,0.05,WeatherDisplay:10.37,2013-11-17 00:03:00,
2013-11-16 16:08:00,52.0,52.0,29.82,SW,225,3.5,3.5,100,0.00,CLR,,0.05,WeatherDisplay:10.37,2013-11-17 00:08:00,
2013-11-16 16:13:00,51.8,51.8,29.82,SW,225,2.3,2.3,100,0.00,CLR,,0.05,WeatherDisplay:10.37,2013-11-17 00:13:00,
2013-11-16 16:18:00,51.8,51.8,29.82,SW,225,3.5,3.5,100,0.00,CLR,,0.05,WeatherDisplay:10.37,2013-11-17 00:18:00,
2013-11-16 16:23:00,51.6,51.6,29.82,SW,225,3.5,3.5,100,0.00,CLR,,0.05,WeatherDisplay:10.37,2013-11-17 00:23:00,
2013-11-16 16:28:00,51.6,51.6,29.83,SW,225,3.5,3.5,100,0.00,CLR,,0.05,WeatherDisplay:10.37,2013-11-17 00:28:00,
2013-11-16 16:33:00,51.4,51.4,29.82,SW,225,2.3,2.3,100,0.00,CLR,,0.05,WeatherDisplay:10.37,2013-11-17 00:33:00,
2013-11-16 16:38:00,51.3,51.3,29.83,SW,225,3.5,3.5,100,0.00,CLR,,0.05,WeatherDisplay:10.37,2013-11-17 00:38:00,
2013-11-16 16:43:00,51.1,51.1,29.83,SW,225,3.5,3.5,100,0.00,CLR,,0.05,WeatherDisplay:10.37,2013-11-17 00:43:00,
2013-11-16 16:48:00,50.9,50.9,29.83,SW,225,3.5,3.5,100,0.00,CLR,,0.05,WeatherDisplay:10.37,2013-11-17 00:48:00,
2013-11-16 16:53:00,50.5,50.5,29.83,SW,225,3.5,3.5,100,0.00,CLR,,0.05,WeatherDisplay:10.37,2013-11-17 00:53:00,
2013-11-16 16:58:00,50.4,50.4,29.83,SW,225,3.5,3.5,100,0.00,CLR,,0.05,WeatherDisplay:10.37,2013-11-17 00:58:00,
2013-11-16 17:03:00,50.4,50.4,29.83,SW,225,2.3,2.3,100,0.00,CLR,,0.05,WeatherDisplay:10.37,2013-11-17 01:03:00,
2013-11-16 17:08:00,50.4,50.4,29.83,South,180,1.2,0.0,100,0.00,CLR,,0.05,WeatherDisplay:10.37,2013-11-17 01:08:00,
2013-11-16 17:13:00,50.0,50.0,29.83,SW,225,3.5,3.5,100,0.00,CLR,,0.05,WeatherDisplay:10.37,2013-11-17 01:13:00,
2013-11-16 17:18:00,49.6,49.6,29.83,SW,225,1.2,0.0,100,0.00,CLR,,0.05,WeatherDisplay:10.37,2013-11-17 01:18:00,
2013-11-16 17:23:00,49.5,49.5,29.83,South,180,1.2,0.0,100,0.00,CLR,,0.05,WeatherDisplay:10.37,2013-11-17 01:23:00,
2013-11-16 17:28:00,49.3,49.3,29.83,South,180,1.2,1.2,100,0.00,CLR,,0.05,WeatherDisplay:10.37,2013-11-17 01:28:00,
2013-11-16 17:33:00,49.1,49.1,29.83,SW,225,2.3,2.3,100,0.00,CLR,,0.05,WeatherDisplay:10.37,2013-11-17 01:33:00,
2013-11-16 17:38:00,49.1,49.1,29.84,SW,225,1.2,0.0,100,0.00,CLR,,0.05,WeatherDisplay:10.37,2013-11-17 01:38:00,
2013-11-16 17:43:00,48.9,48.9,29.84,SW,225,1.2,1.2,100,0.00,CLR,,0.05,WeatherDisplay:10.37,2013-11-17 01:43:00,
2013-11-16 17:48:00,48.9,48.9,29.84,SW,225,2.3,2.3,100,0.00,CLR,,0.05,WeatherDisplay:10.37,2013-11-17 01:48:00,
2013-11-16 17:53:00,48.7,48.7,29.84,SW,225,1.2,1.2,100,0.00,CLR,,0.05,WeatherDisplay:10.37,2013-11-17 01:53:00,
2013-11-16 17:58:00,48.7,48.7,29.84,SW,225,1.2,0.0,100,0.00,CLR,,0.05,WeatherDisplay:10.37,2013-11-17 01:58:00,
2013-11-16 18:03:00,48.7,48.7,29.84,SW,225,0.0,0.0,100,0.00,CLR,,0.05,WeatherDisplay:10.37,2013-11-17 02:03:00,
2013-11-16 18:08:00,48.6,48.6,29.84,South,180,1.2,0.0,100,0.00,CLR,,0.05,WeatherDisplay:10.37,2013-11-17 02:08:00,
2013-11-16 18:13:00,48.6,48.6,29.84,South,180,1.2,0.0,100,0.00,CLR,,0.05,WeatherDisplay:10.37,2013-11-17 02:13:00,
2013-11-16 18:18:00,48.7,48.7,29.85,SW,225,1.2,0.0,100,0.00,CLR,,0.05,WeatherDisplay:10.37,2013-11-17 02:18:00,
2013-11-16 18:23:00,48.7,48.7,29.85,SW,225,1.2,0.0,100,0.00,CLR,,0.05,WeatherDisplay:10.37,2013-11-17 02:23:00,
2013-11-16 18:28:00,48.7,48.7,29.85,SW,225,1.2,1.2,100,0.00,CLR,,0.05,WeatherDisplay:10.37,2013-11-17 02:28:00,
2013-11-16 18:33:00,48.9,48.9,29.85,SW,225,1.2,1.2,100,0.00,CLR,,0.05,WeatherDisplay:10.37,2013-11-17 02:33:00,
2013-11-16 18:38:00,48.7,48.7,29.85,South,180,1.2,0.0,100,0.00,CLR,,0.05,WeatherDisplay:10.37,2013-11-17 02:38:00,
2013-11-16 18:43:00,48.4,48.4,29.85,South,180,1.2,0.0,100,0.00,CLR,,0.05,WeatherDisplay:10.37,2013-11-17 02:43:00,
2013-11-16 18:48:00,48.2,48.2,29.85,South,180,1.2,1.2,100,0.00,CLR,,0.05,WeatherDisplay:10.37,2013-11-17 02:48:00,
2013-11-16 18:53:00,47.8,47.8,29.85,South,180,1.2,1.2,100,0.00,CLR,,0.05,WeatherDisplay:10.37,2013-11-17 02:53:00,
2013-11-16 18:58:00,47.8,47.8,29.85,South,180,1.2,0.0,100,0.00,CLR,,0.05,WeatherDisplay:10.37,2013-11-17 02:58:00,
2013-11-16 19:03:00,47.7,47.7,29.85,South,180,1.2,0.0,100,0.00,CLR,,0.05,WeatherDisplay:10.37,2013-11-17 03:03:00,
2013-11-16 19:08:00,47.5,47.5,29.85,South,180,1.2,0.0,100,0.00,CLR,,0.05,WeatherDisplay:10.37,2013-11-17 03:08:00,
2013-11-16 19:13:00,47.3,47.3,29.85,South,180,1.2,0.0,100,0.00,CLR,,0.05,WeatherDisplay:10.37,2013-11-17 03:13:00,
2013-11-16 19:18:00,47.3,47.3,29.86,South,180,1.2,0.0,100,0.00,CLR,,0.05,WeatherDisplay:10.37,2013-11-17 03:18:00,
2013-11-16 19:23:00,47.1,47.1,29.85,South,180,1.2,0.0,100,0.00,CLR,,0.05,WeatherDisplay:10.37,2013-11-17 03:23:00,
2013-11-16 19:28:00,47.1,47.1,29.85,South,180,2.3,2.3,100,0.00,CLR,,0.05,WeatherDisplay:10.37,2013-11-17 03:28:00,
2013-11-16 19:33:00,47.1,47.1,29.86,South,180,0.0,0.0,100,0.00,CLR,,0.05,WeatherDisplay:10.37,2013-11-17 03:33:00,
2013-11-16 19:38:00,47.1,47.1,29.86,South,180,1.2,0.0,100,0.00,CLR,,0.05,WeatherDisplay:10.37,2013-11-17 03:38:00,
2013-11-16 19:43:00,46.9,46.9,29.85,SW,225,0.0,0.0,100,0.00,CLR,,0.05,WeatherDisplay:10.37,2013-11-17 03:43:00,
2013-11-16 19:48:00,46.6,46.6,29.85,SW,225,0.0,0.0,100,0.00,CLR,,0.05,WeatherDisplay:10.37,2013-11-17 03:48:00,
2013-11-16 19:53:00,46.4,46.4,29.86,SW,225,0.0,0.0,100,0.00,CLR,,0.05,WeatherDisplay:10.37,2013-11-17 03:53:00,
2013-11-16 19:58:00,46.2,46.2,29.85,SW,225,0.0,0.0,100,0.00,,,0.05,WeatherDisplay:10.37,2013-11-17 03:58:00,
2013-11-16 20:03:00,46.0,46.0,29.86,South,180,1.2,0.0,100,0.00,,,0.05,WeatherDisplay:10.37,2013-11-17 04:03:00,
2013-11-16 20:08:00,46.0,46.0,29.86,South,180,1.2,0.0,100,0.00,,,0.05,WeatherDisplay:10.37,2013-11-17 04:08:00,
2013-11-16 20:13:00,46.0,46.0,29.86,South,180,0.0,0.0,100,0.00,,,0.05,WeatherDisplay:10.37,2013-11-17 04:13:00,
2013-11-16 20:18:00,45.9,45.9,29.86,South,180,0.0,0.0,100,0.00,,,0.05,WeatherDisplay:10.37,2013-11-17 04:18:00,
2013-11-16 20:23:00,45.7,45.7,29.86,South,180,1.2,0.0,100,0.00,,,0.05,WeatherDisplay:10.37,2013-11-17 04:23:00,